Main page
METAR-TAF:

METAR-TAF

Airports :

Charles de Gaulle Airport

Paris-Charles De Gaulle, France

latitude: 49-01N, longitude: 002-32E, elevation: 118 m

Current weather observation

The report was made 27 minutes ago, at 15:00 UTC
Wind 9 kt from the East, varying between East/Northeast and Southeast
Temperature 16°C
Humidity 36%
Pressure 1020 hPa
Visibility 10 km or more
no clouds below 1500 m and no cumulonimbus

METAR: LFPG 041500Z AUTO 09009KT 070V130 CAVOK 16/01 Q1020 NOSIG

Time: 17:27 (15:27 UTC)

Forecast

The report was made 4 hours and 27 minutes ago, at 11:00 UTC
Forecast valid from 04 at 12 UTC to 05 at 18 UTC
Wind 10 kt from the Southeast
Visibility 10 km or more
Few clouds at a height of 4500 ft

TAF: LFPG 041100Z 0412/0518 14010KT 9999 FEW045 TX21/0515Z TN04/0505Z

Weather observations and forecasts of more than 4000 airports (METAR and TAF reports).

The available stations are represented by yellow and red dots on the map.

Hover mouse over dot to see the name of the station.

Then click to see weather observations and forecasts.

To change the map : click on the green buttons with a black cross to zoom in, on the green button with a dash to zoom out, or on the green arrows for adjacent maps.


METAR-TAF: